sensor_id;sensor_type;location;lat;lon;timestamp;pressure;altitude;pressure_sealevel;temperature;humidity
46598;BME280;32318;48.858;8.252;2023-03-25T00:04:41;99701.94;;;9.57;79.60
46598;BME280;32318;48.858;8.252;2023-03-25T00:12:41;99703.59;;;9.58;81.28
46598;BME280;32318;48.858;8.252;2023-03-25T00:20:42;99686.09;;;9.64;79.64
46598;BME280;32318;48.858;8.252;2023-03-25T00:28:44;99677.72;;;9.67;78.77
46598;BME280;32318;48.858;8.252;2023-03-25T00:36:45;99676.41;;;9.71;77.13
46598;BME280;32318;48.858;8.252;2023-03-25T00:44:47;99674.41;;;9.73;76.49
46598;BME280;32318;48.858;8.252;2023-03-25T00:52:48;99675.06;;;9.67;77.32
46598;BME280;32318;48.858;8.252;2023-03-25T01:00:48;99657.78;;;9.63;76.80
46598;BME280;32318;48.858;8.252;2023-03-25T01:08:51;99630.16;;;9.56;77.04
46598;BME280;32318;48.858;8.252;2023-03-25T01:16:51;99618.16;;;9.52;76.55
46598;BME280;32318;48.858;8.252;2023-03-25T01:24:52;99619.34;;;9.49;76.48
46598;BME280;32318;48.858;8.252;2023-03-25T01:32:52;99663.66;;;9.42;76.03
46598;BME280;32318;48.858;8.252;2023-03-25T01:40:53;99705.66;;;9.23;77.96
46598;BME280;32318;48.858;8.252;2023-03-25T01:48:53;99723.97;;;8.85;79.20
46598;BME280;32318;48.858;8.252;2023-03-25T01:56:54;99722.28;;;8.51;79.84
46598;BME280;32318;48.858;8.252;2023-03-25T02:04:59;99689.25;;;8.19;80.74
46598;BME280;32318;48.858;8.252;2023-03-25T02:13:04;99674.63;;;8.15;81.23
46598;BME280;32318;48.858;8.252;2023-03-25T02:21:11;99679.25;;;8.05;82.56
46598;BME280;32318;48.858;8.252;2023-03-25T02:29:51;99688.00;;;7.89;82.90
46598;BME280;32318;48.858;8.252;2023-03-25T02:46:15;99690.84;;;7.87;83.45
46598;BME280;32318;48.858;8.252;2023-03-25T02:54:17;99687.66;;;7.83;82.33
46598;BME280;32318;48.858;8.252;2023-03-25T03:02:20;99685.34;;;7.89;82.62
46598;BME280;32318;48.858;8.252;2023-03-25T03:10:25;99682.22;;;7.93;81.56
46598;BME280;32318;48.858;8.252;2023-03-25T03:26:49;99682.22;;;8.01;80.25
46598;BME280;32318;48.858;8.252;2023-03-25T03:35:00;99697.53;;;8.08;80.30
46598;BME280;32318;48.858;8.252;2023-03-25T03:43:06;99725.50;;;8.20;80.06
46598;BME280;32318;48.858;8.252;2023-03-25T03:51:12;99731.84;;;8.27;79.91
46598;BME280;32318;48.858;8.252;2023-03-25T03:59:23;99737.84;;;8.29;79.70
46598;BME280;32318;48.858;8.252;2023-03-25T04:07:34;99741.69;;;8.35;79.24
46598;BME280;32318;48.858;8.252;2023-03-25T04:15:40;99745.66;;;8.39;79.35
46598;BME280;32318;48.858;8.252;2023-03-25T04:23:40;99753.16;;;8.44;78.14
46598;BME280;32318;48.858;8.252;2023-03-25T04:31:41;99740.72;;;8.44;77.49
46598;BME280;32318;48.858;8.252;2023-03-25T04:39:45;99724.28;;;8.49;77.12
46598;BME280;32318;48.858;8.252;2023-03-25T04:47:47;99708.66;;;8.54;76.34
46598;BME280;32318;48.858;8.252;2023-03-25T04:55:48;99706.00;;;8.54;76.74
46598;BME280;32318;48.858;8.252;2023-03-25T05:03:49;99713.81;;;8.56;76.11
46598;BME280;32318;48.858;8.252;2023-03-25T05:11:51;99710.50;;;8.54;76.92
46598;BME280;32318;48.858;8.252;2023-03-25T05:19:52;99720.28;;;8.53;76.84
46598;BME280;32318;48.858;8.252;2023-03-25T05:27:54;99734.94;;;8.57;77.09
46598;BME280;32318;48.858;8.252;2023-03-25T05:35:54;99750.91;;;8.57;77.11
46598;BME280;32318;48.858;8.252;2023-03-25T05:43:54;99737.59;;;8.57;76.97
46598;BME280;32318;48.858;8.252;2023-03-25T05:51:54;99742.25;;;8.55;76.73
46598;BME280;32318;48.858;8.252;2023-03-25T05:59:55;99745.09;;;8.62;76.77
46598;BME280;32318;48.858;8.252;2023-03-25T06:07:56;99752.91;;;8.63;77.32
46598;BME280;32318;48.858;8.252;2023-03-25T06:15:56;99743.91;;;8.56;77.52
46598;BME280;32318;48.858;8.252;2023-03-25T06:23:59;99747.78;;;8.78;76.97
46598;BME280;32318;48.858;8.252;2023-03-25T06:32:00;99749.44;;;8.79;76.66
46598;BME280;32318;48.858;8.252;2023-03-25T06:40:03;99746.13;;;8.86;76.01
46598;BME280;32318;48.858;8.252;2023-03-25T06:48:05;99746.63;;;8.98;75.96
46598;BME280;32318;48.858;8.252;2023-03-25T06:56:06;99752.94;;;9.13;75.75
46598;BME280;32318;48.858;8.252;2023-03-25T07:04:06;99748.13;;;9.08;76.24
46598;BME280;32318;48.858;8.252;2023-03-25T07:12:06;99746.44;;;9.16;75.88
46598;BME280;32318;48.858;8.252;2023-03-25T07:20:07;99744.91;;;9.46;75.09
46598;BME280;32318;48.858;8.252;2023-03-25T07:28:08;99742.75;;;9.50;74.77
46598;BME280;32318;48.858;8.252;2023-03-25T07:36:10;99739.94;;;9.51;74.38
46598;BME280;32318;48.858;8.252;2023-03-25T07:44:11;99733.84;;;9.82;73.32
46598;BME280;32318;48.858;8.252;2023-03-25T07:52:11;99739.84;;;9.84;73.07
46598;BME280;32318;48.858;8.252;2023-03-25T08:00:12;99739.84;;;9.84;73.59
46598;BME280;32318;48.858;8.252;2023-03-25T08:08:13;99764.25;;;9.40;77.01
46598;BME280;32318;48.858;8.252;2023-03-25T08:16:14;99789.03;;;8.91;78.96
46598;BME280;32318;48.858;8.252;2023-03-25T08:24:14;99779.88;;;8.77;80.35
46598;BME280;32318;48.858;8.252;2023-03-25T08:32:14;99791.88;;;8.81;80.66
46598;BME280;32318;48.858;8.252;2023-03-25T08:40:15;99787.03;;;8.85;81.58
46598;BME280;32318;48.858;8.252;2023-03-25T08:48:18;99787.88;;;8.93;83.32
46598;BME280;32318;48.858;8.252;2023-03-25T08:56:19;99791.91;;;9.22;81.34
46598;BME280;32318;48.858;8.252;2023-03-25T09:04:19;99779.75;;;9.20;82.97
46598;BME280;32318;48.858;8.252;2023-03-25T09:12:19;99769.09;;;9.20;83.68
46598;BME280;32318;48.858;8.252;2023-03-25T09:20:20;99762.94;;;9.28;84.52
46598;BME280;32318;48.858;8.252;2023-03-25T09:28:20;99755.94;;;9.26;83.65
46598;BME280;32318;48.858;8.252;2023-03-25T09:36:20;99754.09;;;9.27;83.03
46598;BME280;32318;48.858;8.252;2023-03-25T09:44:26;99779.25;;;9.16;84.09
46598;BME280;32318;48.858;8.252;2023-03-25T09:52:41;99759.94;;;9.06;83.05
46598;BME280;32318;48.858;8.252;2023-03-25T10:00:47;99776.75;;;9.23;83.14
46598;BME280;32318;48.858;8.252;2023-03-25T10:17:14;99789.03;;;9.65;85.81
46598;BME280;32318;48.858;8.252;2023-03-25T10:25:19;99777.34;;;9.83;83.59
46598;BME280;32318;48.858;8.252;2023-03-25T10:33:29;99783.47;;;9.92;82.03
46598;BME280;32318;48.858;8.252;2023-03-25T10:41:37;99766.81;;;10.29;81.72
46598;BME280;32318;48.858;8.252;2023-03-25T10:49:40;99772.25;;;10.52;80.12
46598;BME280;32318;48.858;8.252;2023-03-25T10:57:42;99790.78;;;10.77;74.94
46598;BME280;32318;48.858;8.252;2023-03-25T11:05:43;99784.09;;;10.81;72.55
46598;BME280;32318;48.858;8.252;2023-03-25T11:13:44;99787.06;;;10.87;71.77
46598;BME280;32318;48.858;8.252;2023-03-25T11:21:47;99789.78;;;11.02;72.72
46598;BME280;32318;48.858;8.252;2023-03-25T11:29:54;99781.59;;;11.26;69.26
46598;BME280;32318;48.858;8.252;2023-03-25T11:38:00;99766.41;;;11.27;67.81
46598;BME280;32318;48.858;8.252;2023-03-25T11:46:12;99810.38;;;10.93;70.96
46598;BME280;32318;48.858;8.252;2023-03-25T11:54:15;99788.16;;;10.38;72.26
46598;BME280;32318;48.858;8.252;2023-03-25T12:02:23;99794.47;;;10.45;73.35
46598;BME280;32318;48.858;8.252;2023-03-25T12:18:39;99804.56;;;10.89;73.99
46598;BME280;32318;48.858;8.252;2023-03-25T12:43:09;99788.09;;;11.47;67.48
46598;BME280;32318;48.858;8.252;2023-03-25T12:51:40;99782.13;;;11.75;67.71
46598;BME280;32318;48.858;8.252;2023-03-25T13:00:02;99785.66;;;12.05;66.35
46598;BME280;32318;48.858;8.252;2023-03-25T13:08:13;99760.84;;;11.97;66.32
46598;BME280;32318;48.858;8.252;2023-03-25T13:16:18;99769.41;;;11.92;64.99
46598;BME280;32318;48.858;8.252;2023-03-25T13:24:26;99797.06;;;11.31;67.57
46598;BME280;32318;48.858;8.252;2023-03-25T13:33:06;99781.44;;;11.43;66.05
46598;BME280;32318;48.858;8.252;2023-03-25T13:49:21;99771.56;;;12.12;60.76
46598;BME280;32318;48.858;8.252;2023-03-25T14:13:39;99744.16;;;12.83;60.25
46598;BME280;32318;48.858;8.252;2023-03-25T14:21:47;99746.19;;;12.81;57.51
46598;BME280;32318;48.858;8.252;2023-03-25T14:37:54;99749.78;;;12.88;52.44
46598;BME280;32318;48.858;8.252;2023-03-25T14:54:20;99715.59;;;12.90;50.38
46598;BME280;32318;48.858;8.252;2023-03-25T15:02:27;99719.00;;;13.06;50.52
46598;BME280;32318;48.858;8.252;2023-03-25T15:10:34;99704.78;;;13.33;51.42
46598;BME280;32318;48.858;8.252;2023-03-25T15:26:37;99700.69;;;13.66;47.17
46598;BME280;32318;48.858;8.252;2023-03-25T16:00:32;99718.44;;;13.10;52.61
46598;BME280;32318;48.858;8.252;2023-03-25T16:08:36;99705.22;;;13.09;52.68
46598;BME280;32318;48.858;8.252;2023-03-25T16:16:42;99722.06;;;13.02;52.44
46598;BME280;32318;48.858;8.252;2023-03-25T16:24:45;99720.06;;;12.83;52.87
46598;BME280;32318;48.858;8.252;2023-03-25T16:32:47;99730.28;;;12.79;52.72
46598;BME280;32318;48.858;8.252;2023-03-25T16:40:48;99723.44;;;12.70;52.34
46598;BME280;32318;48.858;8.252;2023-03-25T16:48:51;99727.44;;;12.59;53.68
46598;BME280;32318;48.858;8.252;2023-03-25T16:56:53;99721.63;;;12.55;53.60
46598;BME280;32318;48.858;8.252;2023-03-25T17:05:14;99724.50;;;12.54;52.54
46598;BME280;32318;48.858;8.252;2023-03-25T17:13:23;99719.63;;;12.43;52.33
46598;BME280;32318;48.858;8.252;2023-03-25T17:21:27;99715.69;;;12.38;52.78
46598;BME280;32318;48.858;8.252;2023-03-25T17:29:29;99726.13;;;12.18;52.72
46598;BME280;32318;48.858;8.252;2023-03-25T17:37:29;99743.72;;;12.06;54.13
46598;BME280;32318;48.858;8.252;2023-03-25T17:45:31;99772.09;;;11.92;54.29
46598;BME280;32318;48.858;8.252;2023-03-25T17:53:43;99789.03;;;11.84;54.09
46598;BME280;32318;48.858;8.252;2023-03-25T18:01:44;99802.97;;;11.80;54.38
46598;BME280;32318;48.858;8.252;2023-03-25T18:09:46;99813.59;;;11.73;55.72
46598;BME280;32318;48.858;8.252;2023-03-25T18:17:46;99833.63;;;11.54;56.20
46598;BME280;32318;48.858;8.252;2023-03-25T18:25:49;99838.03;;;11.46;57.12
46598;BME280;32318;48.858;8.252;2023-03-25T18:33:50;99845.59;;;11.43;57.16
46598;BME280;32318;48.858;8.252;2023-03-25T18:41:50;99871.31;;;11.44;57.75
46598;BME280;32318;48.858;8.252;2023-03-25T18:49:52;99883.97;;;11.27;59.26
46598;BME280;32318;48.858;8.252;2023-03-25T18:57:53;99868.09;;;11.02;60.34
46598;BME280;32318;48.858;8.252;2023-03-25T19:05:54;99871.03;;;10.84;60.69
46598;BME280;32318;48.858;8.252;2023-03-25T19:13:55;99873.97;;;10.66;61.36
46598;BME280;32318;48.858;8.252;2023-03-25T19:21:55;99886.00;;;10.62;61.46
46598;BME280;32318;48.858;8.252;2023-03-25T19:29:56;99902.03;;;10.54;62.80
46598;BME280;32318;48.858;8.252;2023-03-25T19:37:56;99913.41;;;10.47;63.32
46598;BME280;32318;48.858;8.252;2023-03-25T19:45:57;99900.41;;;10.44;62.92
46598;BME280;32318;48.858;8.252;2023-03-25T19:53:58;99900.91;;;10.31;66.14
46598;BME280;32318;48.858;8.252;2023-03-25T20:01:58;99900.75;;;10.25;66.75
46598;BME280;32318;48.858;8.252;2023-03-25T20:10:00;99895.28;;;10.18;67.05
46598;BME280;32318;48.858;8.252;2023-03-25T20:18:00;99883.91;;;10.24;67.00
46598;BME280;32318;48.858;8.252;2023-03-25T20:26:00;99874.06;;;10.25;66.56
46598;BME280;32318;48.858;8.252;2023-03-25T20:34:00;99878.06;;;10.29;66.72
46598;BME280;32318;48.858;8.252;2023-03-25T20:42:01;99891.41;;;10.29;66.91
46598;BME280;32318;48.858;8.252;2023-03-25T20:50:03;99892.91;;;10.31;67.24
46598;BME280;32318;48.858;8.252;2023-03-25T20:58:04;99900.56;;;10.34;67.27
46598;BME280;32318;48.858;8.252;2023-03-25T21:06:05;99895.38;;;10.33;67.17
46598;BME280;32318;48.858;8.252;2023-03-25T21:14:05;99913.25;;;10.32;67.27
46598;BME280;32318;48.858;8.252;2023-03-25T21:22:06;99925.91;;;10.30;66.51
46598;BME280;32318;48.858;8.252;2023-03-25T21:30:07;99931.44;;;10.20;67.22
46598;BME280;32318;48.858;8.252;2023-03-25T21:38:10;99929.47;;;10.14;68.00
46598;BME280;32318;48.858;8.252;2023-03-25T21:46:11;99933.78;;;10.07;68.72
46598;BME280;32318;48.858;8.252;2023-03-25T21:54:12;99929.31;;;9.99;68.57
46598;BME280;32318;48.858;8.252;2023-03-25T22:02:13;99893.47;;;9.94;67.78
46598;BME280;32318;48.858;8.252;2023-03-25T22:10:13;99866.47;;;9.80;68.57
46598;BME280;32318;48.858;8.252;2023-03-25T22:18:13;99883.50;;;9.71;72.43
46598;BME280;32318;48.858;8.252;2023-03-25T22:26:15;99891.31;;;9.72;71.61
46598;BME280;32318;48.858;8.252;2023-03-25T22:34:16;99889.34;;;9.66;71.81
46598;BME280;32318;48.858;8.252;2023-03-25T22:42:16;99879.81;;;9.55;72.78
46598;BME280;32318;48.858;8.252;2023-03-25T22:50:17;99874.50;;;9.47;72.96
46598;BME280;32318;48.858;8.252;2023-03-25T22:58:21;99873.31;;;9.41;74.04
46598;BME280;32318;48.858;8.252;2023-03-25T23:06:23;99869.16;;;9.39;74.77
46598;BME280;32318;48.858;8.252;2023-03-25T23:14:23;99863.50;;;9.42;74.34
46598;BME280;32318;48.858;8.252;2023-03-25T23:22:23;99856.81;;;9.38;74.93
46598;BME280;32318;48.858;8.252;2023-03-25T23:30:24;99839.34;;;9.35;74.83
46598;BME280;32318;48.858;8.252;2023-03-25T23:38:24;99830.03;;;9.31;74.96
46598;BME280;32318;48.858;8.252;2023-03-25T23:46:25;99828.00;;;9.33;74.76
46598;BME280;32318;48.858;8.252;2023-03-25T23:54:27;99817.53;;;9.32;74.87
